createdAt,value
2022-09-15T00:01:11.449Z,17.54
2022-09-15T00:03:41.225Z,17.57
2022-09-15T00:06:10.251Z,17.55
2022-09-15T00:08:38.227Z,17.59
2022-09-15T00:11:08.631Z,17.62
2022-09-15T00:13:38.206Z,17.65
2022-09-15T00:16:07.127Z,17.60
2022-09-15T00:18:36.252Z,17.61
2022-09-15T00:21:08.410Z,17.65
2022-09-15T00:23:37.153Z,17.54
2022-09-15T00:26:08.898Z,17.44
2022-09-15T00:28:38.084Z,17.41
2022-09-15T00:31:08.121Z,17.41
2022-09-15T00:33:36.575Z,17.34
2022-09-15T00:36:07.686Z,17.47
2022-09-15T00:38:37.035Z,17.54
2022-09-15T00:41:06.364Z,17.47
2022-09-15T00:43:47.417Z,17.33
2022-09-15T00:46:16.655Z,17.16
2022-09-15T00:48:48.444Z,17.15
2022-09-15T00:51:22.213Z,17.18
2022-09-15T00:53:51.317Z,17.23
2022-09-15T00:56:20.650Z,17.09
2022-09-15T00:58:55.671Z,17.25
2022-09-15T01:01:27.124Z,17.09
2022-09-15T01:03:55.658Z,17.02
2022-09-15T01:06:31.521Z,16.97
2022-09-15T01:09:07.146Z,16.96
2022-09-15T01:11:35.323Z,17.03
2022-09-15T01:14:03.062Z,16.91
2022-09-15T01:16:40.993Z,16.92
2022-09-15T01:19:33.588Z,16.84
2022-09-15T01:22:13.526Z,16.82
2022-09-15T01:24:46.907Z,16.97
2022-09-15T01:27:42.085Z,16.97
2022-09-15T01:30:13.963Z,16.87
2022-09-15T01:33:06.124Z,16.77
2022-09-15T01:36:00.922Z,16.89
2022-09-15T01:38:36.906Z,16.77
2022-09-15T01:41:12.754Z,16.75
2022-09-15T01:43:46.716Z,16.66
2022-09-15T01:46:17.809Z,16.50
2022-09-15T01:48:49.106Z,16.50
2022-09-15T01:51:17.890Z,16.38
2022-09-15T01:53:46.955Z,16.43
2022-09-15T01:56:14.697Z,16.39
2022-09-15T01:58:43.111Z,16.34
2022-09-15T02:01:16.543Z,16.25
2022-09-15T02:03:50.196Z,16.24
2022-09-15T02:06:23.494Z,16.36
2022-09-15T02:08:57.318Z,16.25
2022-09-15T02:11:28.893Z,16.40
2022-09-15T02:14:09.632Z,16.18
2022-09-15T02:16:42.582Z,16.11
2022-09-15T02:19:17.711Z,16.04
2022-09-15T02:21:58.121Z,15.98
2022-09-15T02:24:30.951Z,16.05
2022-09-15T02:26:59.315Z,16.11
2022-09-15T02:29:30.320Z,16.01
2022-09-15T02:32:06.794Z,16.02
2022-09-15T02:34:41.306Z,16.09
2022-09-15T02:37:10.637Z,15.98
2022-09-15T02:39:43.261Z,15.89
2022-09-15T02:42:11.120Z,15.91
2022-09-15T02:44:39.121Z,15.95
2022-09-15T02:47:08.430Z,15.80
2022-09-15T02:49:36.164Z,15.83
2022-09-15T02:52:04.436Z,15.67
2022-09-15T02:54:32.372Z,15.77
2022-09-15T02:57:00.977Z,15.68
2022-09-15T02:59:49.472Z,15.69
2022-09-15T03:02:20.553Z,15.68
2022-09-15T03:04:48.718Z,15.67
2022-09-15T03:07:17.131Z,15.76
2022-09-15T03:09:45.264Z,15.71
2022-09-15T03:12:13.157Z,15.77
2022-09-15T03:14:40.871Z,15.69
2022-09-15T03:17:08.606Z,15.67
2022-09-15T03:19:37.784Z,15.61
2022-09-15T03:22:05.517Z,15.59
2022-09-15T03:24:33.639Z,15.66
2022-09-15T03:27:01.815Z,15.57
2022-09-15T03:29:29.659Z,15.51
2022-09-15T03:31:57.568Z,15.60
2022-09-15T03:34:25.518Z,15.46
2022-09-15T03:36:54.754Z,15.50
2022-09-15T03:39:22.519Z,15.45
2022-09-15T03:41:50.379Z,15.48
2022-09-15T03:44:18.173Z,15.37
2022-09-15T03:46:46.161Z,15.39
2022-09-15T03:49:13.946Z,15.37
2022-09-15T03:51:41.750Z,15.46
2022-09-15T03:54:11.441Z,15.35
2022-09-15T03:56:39.407Z,15.29
2022-09-15T03:59:07.634Z,15.31
2022-09-15T04:01:35.950Z,15.28
2022-09-15T04:04:04.130Z,15.26
2022-09-15T04:06:31.990Z,15.25
2022-09-15T04:09:00.963Z,15.22
2022-09-15T04:11:30.186Z,15.25
2022-09-15T04:13:58.148Z,15.21
2022-09-15T04:16:27.609Z,15.24
2022-09-15T04:18:56.240Z,15.28
2022-09-15T04:21:26.690Z,15.35
2022-09-15T04:23:54.975Z,15.31
2022-09-15T04:26:25.819Z,15.26
2022-09-15T04:28:54.906Z,15.34
2022-09-15T04:31:22.673Z,15.33
2022-09-15T04:33:54.065Z,15.31
2022-09-15T04:36:24.128Z,15.32
2022-09-15T04:39:05.294Z,15.22
2022-09-15T04:41:34.684Z,15.30
2022-09-15T04:44:04.359Z,15.27
2022-09-15T04:46:32.203Z,15.32
2022-09-15T04:49:00.043Z,15.25
2022-09-15T04:51:28.266Z,15.23
2022-09-15T04:53:56.111Z,15.20
2022-09-15T04:56:25.525Z,15.29
2022-09-15T04:58:56.482Z,15.28
2022-09-15T05:01:30.644Z,15.31
2022-09-15T05:03:58.883Z,15.28
2022-09-15T05:06:28.487Z,15.24
2022-09-15T05:08:58.415Z,15.23
2022-09-15T05:11:27.104Z,15.20
2022-09-15T05:13:55.424Z,15.22
2022-09-15T05:16:25.500Z,15.29
2022-09-15T05:18:56.683Z,15.21
2022-09-15T05:21:25.795Z,15.26
2022-09-15T05:23:53.946Z,15.29
2022-09-15T05:26:24.146Z,15.35
2022-09-15T05:28:52.703Z,15.35
2022-09-15T05:31:24.296Z,15.31
2022-09-15T05:33:54.285Z,15.36
2022-09-15T05:36:25.069Z,15.34
2022-09-15T05:38:53.863Z,15.28
2022-09-15T05:41:21.949Z,15.43
2022-09-15T05:43:52.228Z,15.35
2022-09-15T05:46:20.724Z,15.41
2022-09-15T05:48:48.536Z,15.45
2022-09-15T05:51:17.736Z,15.39
2022-09-15T05:53:45.660Z,15.32
2022-09-15T05:56:15.732Z,15.46
2022-09-15T05:58:45.240Z,15.43
2022-09-15T06:01:15.588Z,15.42
2022-09-15T06:03:46.363Z,15.42
2022-09-15T06:06:14.476Z,15.41
2022-09-15T06:08:47.073Z,15.53
2022-09-15T06:11:17.890Z,15.49
2022-09-15T06:13:46.467Z,15.60
2022-09-15T06:16:18.177Z,15.56
2022-09-15T06:18:46.943Z,15.43
2022-09-15T06:21:16.862Z,15.70
2022-09-15T06:23:50.632Z,15.63
2022-09-15T06:26:20.567Z,15.77
2022-09-15T06:28:50.517Z,15.73
2022-09-15T06:31:18.873Z,15.64
2022-09-15T06:33:48.948Z,15.75
2022-09-15T06:36:17.053Z,15.97
2022-09-15T06:38:47.776Z,16.05
2022-09-15T06:41:16.708Z,16.16
2022-09-15T06:43:44.943Z,16.27
2022-09-15T06:46:14.757Z,16.36
2022-09-15T06:48:45.238Z,16.10
2022-09-15T06:51:17.451Z,16.37
2022-09-15T06:53:47.143Z,16.43
2022-09-15T06:56:16.666Z,16.23
2022-09-15T06:58:45.724Z,16.25
2022-09-15T07:01:15.159Z,16.13
2022-09-15T07:03:44.731Z,16.13
2022-09-15T07:06:13.426Z,16.15
2022-09-15T07:08:41.754Z,16.32
2022-09-15T07:11:11.791Z,16.34
2022-09-15T07:13:39.772Z,16.41
2022-09-15T07:16:10.845Z,16.51
2022-09-15T07:18:43.277Z,16.74
2022-09-15T07:21:13.798Z,16.71
2022-09-15T07:23:41.837Z,16.56
2022-09-15T07:26:12.915Z,16.69
2022-09-15T07:28:42.548Z,16.73
2022-09-15T07:31:13.373Z,16.81
2022-09-15T07:33:41.301Z,16.62
2022-09-15T07:36:10.740Z,16.81
2022-09-15T07:38:41.666Z,16.60
2022-09-15T07:41:13.085Z,16.92
2022-09-15T07:43:41.686Z,16.62
2022-09-15T07:46:17.176Z,16.98
2022-09-15T07:48:46.649Z,17.11
2022-09-15T07:51:17.582Z,17.23
2022-09-15T07:53:49.770Z,17.15
2022-09-15T07:56:19.479Z,17.29
2022-09-15T07:58:47.980Z,17.35
2022-09-15T08:01:17.786Z,17.22
2022-09-15T08:03:48.762Z,17.40
2022-09-15T08:06:18.691Z,17.52
2022-09-15T08:08:47.071Z,17.63
2022-09-15T08:11:19.013Z,17.65
2022-09-15T08:13:49.469Z,17.75
2022-09-15T08:16:20.004Z,17.74
2022-09-15T08:18:48.436Z,17.47
2022-09-15T08:21:20.052Z,17.57
2022-09-15T08:23:51.734Z,17.59
2022-09-15T08:26:20.146Z,17.54
2022-09-15T08:28:49.552Z,17.47
2022-09-15T08:31:18.028Z,17.74
2022-09-15T08:33:49.637Z,17.89
2022-09-15T08:36:17.504Z,18.02
2022-09-15T08:38:46.286Z,18.04
2022-09-15T08:41:18.276Z,18.04
2022-09-15T08:43:51.826Z,18.07
2022-09-15T08:46:23.635Z,18.22
2022-09-15T08:49:02.058Z,17.91
2022-09-15T08:51:36.930Z,18.25
2022-09-15T08:54:11.867Z,18.37
2022-09-15T08:56:41.979Z,18.71
2022-09-15T08:59:14.449Z,18.92
2022-09-15T09:02:09.272Z,18.70
2022-09-15T09:04:49.516Z,18.59
2022-09-15T09:07:35.206Z,18.52
2022-09-15T09:10:13.959Z,18.50
2022-09-15T09:12:56.530Z,18.39
2022-09-15T09:15:37.210Z,18.43
2022-09-15T09:18:30.421Z,18.36
2022-09-15T09:21:05.249Z,18.65
2022-09-15T09:23:39.105Z,18.72
2022-09-15T09:26:10.620Z,18.60
2022-09-15T09:28:43.287Z,18.51
2022-09-15T09:31:18.658Z,18.55
2022-09-15T09:33:52.727Z,18.76
2022-09-15T09:36:21.212Z,18.75
2022-09-15T09:38:50.912Z,18.67
2022-09-15T09:41:25.963Z,18.68
2022-09-15T09:43:56.939Z,18.55
2022-09-15T09:46:26.436Z,18.34
2022-09-15T09:48:59.649Z,18.23
2022-09-15T09:51:36.637Z,18.27
2022-09-15T09:54:16.077Z,18.41
2022-09-15T09:56:44.799Z,18.74
2022-09-15T09:59:35.252Z,19.12
2022-09-15T10:02:15.631Z,19.31
2022-09-15T10:04:45.185Z,19.29
2022-09-15T10:07:14.586Z,19.55
2022-09-15T10:09:52.471Z,19.87
2022-09-15T10:12:27.971Z,19.88
2022-09-15T10:14:58.351Z,20.34
2022-09-15T10:17:39.021Z,20.16
2022-09-15T10:20:21.342Z,20.31
2022-09-15T10:22:49.616Z,20.20
2022-09-15T10:25:49.658Z,20.55
2022-09-15T10:28:24.108Z,20.32
2022-09-15T10:31:04.693Z,20.51
2022-09-15T10:33:35.989Z,20.64
2022-09-15T10:36:07.219Z,20.91
2022-09-15T10:38:46.856Z,21.17
2022-09-15T10:41:27.159Z,20.73
2022-09-15T10:44:10.790Z,20.27
2022-09-15T10:46:49.578Z,20.49
2022-09-15T10:49:34.587Z,20.80
2022-09-15T10:52:14.257Z,20.75
2022-09-15T10:55:04.021Z,20.88
2022-09-15T10:57:46.466Z,21.18
2022-09-15T11:00:20.874Z,21.36
2022-09-15T11:03:25.427Z,21.50
2022-09-15T11:06:05.030Z,21.74
2022-09-15T11:08:49.955Z,21.27
2022-09-15T11:11:26.392Z,21.03
2022-09-15T11:14:07.383Z,20.63
2022-09-15T11:16:49.493Z,20.45
2022-09-15T11:19:32.300Z,20.11
2022-09-15T11:22:04.614Z,20.01
2022-09-15T11:24:41.762Z,19.96
2022-09-15T11:27:17.485Z,19.95
2022-09-15T11:30:01.230Z,19.83
2022-09-15T11:32:33.735Z,19.92
2022-09-15T11:35:15.691Z,19.67
2022-09-15T11:37:49.598Z,19.47
2022-09-15T11:40:25.716Z,19.09
2022-09-15T11:42:58.484Z,18.95
2022-09-15T11:45:29.994Z,18.91
2022-09-15T11:48:06.181Z,19.38
2022-09-15T11:50:38.618Z,19.77
2022-09-15T11:53:17.631Z,20.21
2022-09-15T11:55:52.786Z,20.99
2022-09-15T12:00:55.502Z,20.62
2022-09-15T12:03:30.328Z,20.59
2022-09-15T12:06:02.254Z,20.81
2022-09-15T12:08:37.922Z,20.46
2022-09-15T12:11:10.375Z,19.95
2022-09-15T12:13:38.665Z,19.74
2022-09-15T12:16:07.232Z,19.68
2022-09-15T12:18:44.838Z,19.80
2022-09-15T12:21:22.790Z,19.82
2022-09-15T12:23:58.220Z,19.82
2022-09-15T12:26:28.870Z,20.23
2022-09-15T12:28:59.076Z,20.67
2022-09-15T12:31:36.440Z,20.92
2022-09-15T12:34:07.135Z,20.90
2022-09-15T12:36:42.002Z,20.97
2022-09-15T12:39:37.448Z,20.78
2022-09-15T12:42:11.928Z,20.38
2022-09-15T12:44:44.525Z,20.26
2022-09-15T12:47:23.561Z,20.01
2022-09-15T12:49:53.867Z,19.59
2022-09-15T12:52:24.906Z,19.68
2022-09-15T12:54:57.514Z,19.97
2022-09-15T12:57:29.755Z,19.65
2022-09-15T13:00:42.397Z,19.84
2022-09-15T13:03:30.051Z,20.20
2022-09-15T13:06:15.786Z,20.13
2022-09-15T13:08:47.028Z,20.36
2022-09-15T13:11:21.395Z,20.76
2022-09-15T13:13:53.600Z,20.75
2022-09-15T13:16:29.278Z,20.78
2022-09-15T13:19:09.592Z,20.71
2022-09-15T13:21:41.079Z,20.58
2022-09-15T13:24:18.531Z,20.67
2022-09-15T13:26:52.579Z,20.40
2022-09-15T13:29:22.080Z,20.59
2022-09-15T13:31:56.234Z,20.39
2022-09-15T13:35:15.517Z,20.79
2022-09-15T13:41:16.421Z,21.89
2022-09-15T13:44:17.838Z,21.98
2022-09-15T13:46:57.557Z,21.53
2022-09-15T13:49:48.818Z,21.10
2022-09-15T13:52:33.171Z,21.25
2022-09-15T13:55:27.921Z,21.53
2022-09-15T14:00:55.142Z,20.88
2022-09-15T14:03:28.076Z,20.94
2022-09-15T14:05:57.613Z,20.86
2022-09-15T14:08:27.986Z,20.62
2022-09-15T14:10:59.442Z,20.51
2022-09-15T14:13:29.297Z,20.27
2022-09-15T14:16:00.584Z,20.31
2022-09-15T14:18:28.885Z,21.52
2022-09-15T14:21:04.967Z,22.06
2022-09-15T14:23:33.605Z,22.82
2022-09-15T14:26:03.128Z,22.81
2022-09-15T14:28:33.082Z,22.66
2022-09-15T14:31:03.420Z,22.30
2022-09-15T14:33:38.070Z,22.32
2022-09-15T14:36:14.608Z,21.52
2022-09-15T14:38:42.533Z,21.03
2022-09-15T14:41:20.340Z,21.78
2022-09-15T14:43:48.031Z,21.53
2022-09-15T14:46:20.672Z,21.94
2022-09-15T14:48:48.493Z,22.48
2022-09-15T14:51:22.439Z,22.90
2022-09-15T14:53:52.769Z,22.89
2022-09-15T14:56:24.953Z,23.13
2022-09-15T14:58:57.072Z,23.36
2022-09-15T15:01:33.448Z,26.05
2022-09-15T15:04:09.799Z,27.20
2022-09-15T15:06:42.760Z,28.89
2022-09-15T15:09:17.403Z,30.07
2022-09-15T15:11:45.658Z,26.60
2022-09-15T15:14:15.731Z,25.44
2022-09-15T15:16:53.624Z,25.92
2022-09-15T15:19:33.073Z,27.12
2022-09-15T15:22:08.419Z,25.88
2022-09-15T15:24:42.035Z,24.73
2022-09-15T15:27:41.420Z,23.02
2022-09-15T15:30:44.659Z,21.82
2022-09-15T15:33:20.875Z,21.20
2022-09-15T15:36:02.324Z,20.92
2022-09-15T15:38:33.948Z,20.63
2022-09-15T15:41:03.794Z,20.39
2022-09-15T15:43:31.769Z,20.71
2022-09-15T15:46:01.823Z,20.62
2022-09-15T15:48:37.879Z,20.92
2022-09-15T15:51:07.555Z,20.74
2022-09-15T15:53:35.557Z,20.90
2022-09-15T15:56:04.114Z,20.78
2022-09-15T15:58:34.001Z,20.53
2022-09-15T16:01:01.833Z,20.35
2022-09-15T16:03:33.332Z,20.16
2022-09-15T16:06:02.922Z,20.00
2022-09-15T16:08:34.036Z,20.16
2022-09-15T16:11:03.611Z,19.87
2022-09-15T16:13:31.803Z,19.78
2022-09-15T16:16:01.544Z,19.71
2022-09-15T16:18:31.331Z,19.45
2022-09-15T16:20:59.153Z,19.35
2022-09-15T16:23:26.903Z,19.51
2022-09-15T16:25:59.445Z,19.33
2022-09-15T16:28:28.590Z,19.40
2022-09-15T16:31:01.393Z,19.35
2022-09-15T16:33:29.374Z,19.22
2022-09-15T16:36:06.650Z,19.35
2022-09-15T16:38:35.974Z,19.17
2022-09-15T16:41:04.665Z,19.20
2022-09-15T16:43:32.668Z,19.26
2022-09-15T16:46:00.363Z,19.25
2022-09-15T16:48:28.282Z,18.95
2022-09-15T16:51:17.258Z,18.98
2022-09-15T16:53:47.282Z,18.97
2022-09-15T16:56:16.228Z,18.92
2022-09-15T16:58:45.433Z,18.89
2022-09-15T17:01:18.496Z,18.82
2022-09-15T17:03:49.543Z,18.78
2022-09-15T17:06:18.716Z,18.75
2022-09-15T17:08:50.521Z,18.72
2022-09-15T17:11:22.088Z,18.68
2022-09-15T17:13:50.061Z,18.62
2022-09-15T17:16:20.270Z,18.68
2022-09-15T17:18:48.446Z,18.54
2022-09-15T17:21:18.202Z,18.53
2022-09-15T17:23:51.053Z,18.47
2022-09-15T17:26:21.414Z,18.51
2022-09-15T17:28:50.416Z,18.45
2022-09-15T17:31:20.786Z,18.30
2022-09-15T17:33:49.958Z,18.26
2022-09-15T17:36:18.305Z,18.30
2022-09-15T17:38:48.655Z,18.27
2022-09-15T17:41:19.722Z,18.31
2022-09-15T17:43:47.958Z,18.25
2022-09-15T17:46:16.443Z,18.35
2022-09-15T17:48:44.998Z,18.29
2022-09-15T17:51:16.381Z,18.34
2022-09-15T17:53:45.171Z,18.27
2022-09-15T17:56:13.077Z,18.17
2022-09-15T17:58:46.423Z,18.18
2022-09-15T18:01:15.709Z,18.08
2022-09-15T18:03:45.699Z,18.07
2022-09-15T18:06:14.067Z,18.02
2022-09-15T18:08:42.437Z,18.01
2022-09-15T18:11:15.427Z,17.88
2022-09-15T18:13:44.738Z,17.95
2022-09-15T18:16:14.401Z,18.03
2022-09-15T18:18:42.953Z,18.02
2022-09-15T18:21:23.454Z,17.98
2022-09-15T18:23:51.275Z,17.86
2022-09-15T18:26:23.881Z,17.91
2022-09-15T18:28:56.007Z,17.88
2022-09-15T18:31:23.929Z,17.45
2022-09-15T18:33:51.948Z,16.93
2022-09-15T18:36:20.587Z,16.70
2022-09-15T18:38:48.454Z,16.48
2022-09-15T18:41:16.236Z,16.43
2022-09-15T18:43:48.784Z,16.48
2022-09-15T18:46:18.467Z,16.44
2022-09-15T18:48:46.525Z,16.44
2022-09-15T18:51:23.734Z,16.50
2022-09-15T18:53:54.474Z,16.55
2022-09-15T18:56:22.455Z,16.40
2022-09-15T18:58:53.441Z,16.19
2022-09-15T19:01:22.814Z,15.97
2022-09-15T19:03:50.737Z,15.94
2022-09-15T19:06:18.469Z,15.97
2022-09-15T19:08:46.364Z,15.92
2022-09-15T19:11:14.159Z,15.96
2022-09-15T19:13:41.965Z,15.97
2022-09-15T19:16:10.367Z,15.98
2022-09-15T19:18:39.490Z,16.07
2022-09-15T19:21:08.850Z,16.03
2022-09-15T19:23:36.915Z,16.04
2022-09-15T19:26:05.420Z,15.97
2022-09-15T19:28:33.752Z,16.07
2022-09-15T19:31:01.824Z,16.14
2022-09-15T19:33:29.868Z,16.24
2022-09-15T19:36:17.295Z,16.29
2022-09-15T19:38:50.678Z,16.36
2022-09-15T19:41:18.809Z,16.41
2022-09-15T19:43:46.674Z,16.41
2022-09-15T19:46:16.829Z,16.53
2022-09-15T19:48:49.325Z,16.51
2022-09-15T19:51:20.174Z,16.49
2022-09-15T19:53:48.529Z,16.54
2022-09-15T19:56:18.288Z,16.55
2022-09-15T19:58:46.420Z,16.45
2022-09-15T20:01:14.395Z,16.54
2022-09-15T20:03:42.205Z,16.56
2022-09-15T20:06:11.775Z,16.51
2022-09-15T20:08:44.499Z,16.43
2022-09-15T20:11:12.381Z,16.39
2022-09-15T20:13:43.497Z,16.42
2022-09-15T20:16:27.340Z,16.46
2022-09-15T20:18:56.478Z,16.45
2022-09-15T20:21:48.821Z,16.49
2022-09-15T20:24:15.917Z,16.54
2022-09-15T20:26:43.730Z,16.53
2022-09-15T20:29:11.580Z,16.48
2022-09-15T20:31:39.541Z,16.40
2022-09-15T20:34:07.373Z,16.47
2022-09-15T20:36:38.333Z,16.41
2022-09-15T20:39:10.629Z,16.40
2022-09-15T20:41:40.702Z,16.38
2022-09-15T20:44:10.090Z,16.32
2022-09-15T20:46:46.185Z,16.28
2022-09-15T20:49:14.086Z,16.19
2022-09-15T20:51:42.209Z,16.12
2022-09-15T20:54:11.254Z,16.32
2022-09-15T20:56:40.366Z,16.23
2022-09-15T20:59:10.493Z,16.13
2022-09-15T21:01:39.706Z,16.07
2022-09-15T21:04:09.354Z,15.94
2022-09-15T21:06:37.923Z,15.90
2022-09-15T21:09:06.568Z,15.75
2022-09-15T21:11:35.165Z,15.82
2022-09-15T21:14:04.611Z,15.83
2022-09-15T21:16:33.789Z,15.88
2022-09-15T21:19:01.971Z,15.84
2022-09-15T21:21:31.300Z,15.89
2022-09-15T21:24:03.440Z,15.89
2022-09-15T21:26:33.158Z,15.89
2022-09-15T21:29:01.519Z,15.91
2022-09-15T21:31:33.042Z,16.01
2022-09-15T21:34:01.329Z,15.99
2022-09-15T21:36:30.869Z,16.01
2022-09-15T21:39:00.517Z,16.01
2022-09-15T21:41:30.193Z,16.04
2022-09-15T21:43:59.317Z,16.02
2022-09-15T21:46:30.669Z,16.01
2022-09-15T21:49:00.141Z,16.00
2022-09-15T21:51:30.755Z,15.99
2022-09-15T21:53:59.890Z,16.03
2022-09-15T21:56:29.654Z,16.03
2022-09-15T21:58:57.908Z,16.01
2022-09-15T22:01:27.828Z,15.96
2022-09-15T22:04:00.093Z,15.97
2022-09-15T22:06:31.741Z,16.04
2022-09-15T22:09:00.638Z,15.92
2022-09-15T22:11:28.952Z,15.88
2022-09-15T22:13:57.059Z,15.82
2022-09-15T22:16:26.649Z,15.89
2022-09-15T22:18:55.346Z,15.91
2022-09-15T22:21:26.125Z,15.84
2022-09-15T22:23:55.653Z,15.82
2022-09-15T22:26:25.666Z,15.74
2022-09-15T22:28:54.497Z,15.73
2022-09-15T22:31:23.799Z,15.76
2022-09-15T22:33:51.614Z,15.80
2022-09-15T22:36:24.056Z,15.76
2022-09-15T22:38:56.169Z,15.83
2022-09-15T22:41:27.218Z,15.83
2022-09-15T22:43:55.875Z,15.78
2022-09-15T22:46:24.075Z,15.80
2022-09-15T22:48:51.912Z,15.86
2022-09-15T22:51:19.695Z,15.80
2022-09-15T22:53:47.571Z,15.90
2022-09-15T22:56:19.786Z,15.83
2022-09-15T22:58:49.655Z,15.77
2022-09-15T23:01:19.824Z,15.71
2022-09-15T23:03:51.224Z,15.71
2022-09-15T23:06:19.199Z,15.84
2022-09-15T23:08:52.351Z,15.81
2022-09-15T23:11:21.709Z,15.75
2022-09-15T23:13:50.783Z,15.72
2022-09-15T23:16:18.649Z,15.72
2022-09-15T23:18:46.889Z,15.74
2022-09-15T23:21:15.492Z,15.80
2022-09-15T23:23:46.625Z,15.69
2022-09-15T23:26:15.019Z,15.72
2022-09-15T23:28:44.352Z,15.69
2022-09-15T23:31:13.370Z,15.76
2022-09-15T23:33:42.930Z,15.64
2022-09-15T23:36:13.413Z,15.70
2022-09-15T23:38:43.097Z,15.67
2022-09-15T23:41:12.536Z,15.64
2022-09-15T23:43:40.423Z,15.59
2022-09-15T23:46:09.899Z,15.61
2022-09-15T23:48:37.757Z,15.69
2022-09-15T23:51:06.283Z,15.58
2022-09-15T23:53:34.198Z,15.57
2022-09-15T23:56:02.578Z,15.54
2022-09-15T23:58:30.318Z,15.51
